sensor_id;sensor_type;location;lat;lon;timestamp;P1;P2;P0
61815;PMS5003;57055;-35.296;149.168;2023-05-02T00:00:44;11;11;
61815;PMS5003;57055;-35.296;149.168;2023-05-02T00:03:13;18;18;
61815;PMS5003;57055;-35.296;149.168;2023-05-02T00:05:42;10;10;
61815;PMS5003;57055;-35.296;149.168;2023-05-02T00:08:11;16;16;
61815;PMS5003;57055;-35.296;149.168;2023-05-02T00:10:40;13;12;
61815;PMS5003;57055;-35.296;149.168;2023-05-02T00:13:10;14;12;
61815;PMS5003;57055;-35.296;149.168;2023-05-02T00:15:39;15;15;
61815;PMS5003;57055;-35.296;149.168;2023-05-02T00:18:07;14;14;
61815;PMS5003;57055;-35.296;149.168;2023-05-02T00:20:38;17;16;
61815;PMS5003;57055;-35.296;149.168;2023-05-02T00:23:07;15;15;
61815;PMS5003;57055;-35.296;149.168;2023-05-02T00:25:36;12;12;
61815;PMS5003;57055;-35.296;149.168;2023-05-02T00:28:11;12;12;
61815;PMS5003;57055;-35.296;149.168;2023-05-02T00:30:42;13;13;
61815;PMS5003;57055;-35.296;149.168;2023-05-02T00:33:11;15;14;
61815;PMS5003;57055;-35.296;149.168;2023-05-02T00:35:40;14;14;
61815;PMS5003;57055;-35.296;149.168;2023-05-02T00:38:09;15;15;
61815;PMS5003;57055;-35.296;149.168;2023-05-02T00:40:42;15;13;
61815;PMS5003;57055;-35.296;149.168;2023-05-02T00:43:12;16;16;
61815;PMS5003;57055;-35.296;149.168;2023-05-02T00:45:42;13;13;
61815;PMS5003;57055;-35.296;149.168;2023-05-02T00:48:11;18;14;
61815;PMS5003;57055;-35.296;149.168;2023-05-02T00:50:41;17;17;
61815;PMS5003;57055;-35.296;149.168;2023-05-02T00:53:10;15;15;
61815;PMS5003;57055;-35.296;149.168;2023-05-02T00:55:39;15;15;
61815;PMS5003;57055;-35.296;149.168;2023-05-02T00:58:13;14;14;
61815;PMS5003;57055;-35.296;149.168;2023-05-02T01:00:49;19;18;
61815;PMS5003;57055;-35.296;149.168;2023-05-02T01:03:33;17;14;
61815;PMS5003;57055;-35.296;149.168;2023-05-02T01:06:13;14;14;
61815;PMS5003;57055;-35.296;149.168;2023-05-02T01:08:54;13;13;
61815;PMS5003;57055;-35.296;149.168;2023-05-02T01:11:34;14;12;
61815;PMS5003;57055;-35.296;149.168;2023-05-02T01:14:10;17;14;
61815;PMS5003;57055;-35.296;149.168;2023-05-02T01:16:40;13;13;
61815;PMS5003;57055;-35.296;149.168;2023-05-02T01:19:15;14;14;
61815;PMS5003;57055;-35.296;149.168;2023-05-02T01:21:52;15;12;
61815;PMS5003;57055;-35.296;149.168;2023-05-02T01:24:24;12;10;
61815;PMS5003;57055;-35.296;149.168;2023-05-02T01:27:00;11;11;
61815;PMS5003;57055;-35.296;149.168;2023-05-02T01:29:43;8;8;
61815;PMS5003;57055;-35.296;149.168;2023-05-02T01:32:15;8;8;
61815;PMS5003;57055;-35.296;149.168;2023-05-02T01:34:47;8;8;
61815;PMS5003;57055;-35.296;149.168;2023-05-02T01:37:16;12;11;
61815;PMS5003;57055;-35.296;149.168;2023-05-02T01:39:46;10;10;
61815;PMS5003;57055;-35.296;149.168;2023-05-02T01:42:17;9;8;
61815;PMS5003;57055;-35.296;149.168;2023-05-02T01:44:49;10;8;
61815;PMS5003;57055;-35.296;149.168;2023-05-02T01:47:21;10;10;
61815;PMS5003;57055;-35.296;149.168;2023-05-02T01:49:50;10;10;
61815;PMS5003;57055;-35.296;149.168;2023-05-02T01:52:19;8;8;
61815;PMS5003;57055;-35.296;149.168;2023-05-02T01:54:50;9;9;
61815;PMS5003;57055;-35.296;149.168;2023-05-02T01:57:22;9;9;
61815;PMS5003;57055;-35.296;149.168;2023-05-02T01:59:51;8;7;
61815;PMS5003;57055;-35.296;149.168;2023-05-02T02:02:23;6;6;
61815;PMS5003;57055;-35.296;149.168;2023-05-02T02:04:54;8;6;
61815;PMS5003;57055;-35.296;149.168;2023-05-02T02:07:25;7;5;
61815;PMS5003;57055;-35.296;149.168;2023-05-02T02:09:54;7;7;
61815;PMS5003;57055;-35.296;149.168;2023-05-02T02:12:25;8;6;
61815;PMS5003;57055;-35.296;149.168;2023-05-02T02:14:58;7;7;
61815;PMS5003;57055;-35.296;149.168;2023-05-02T02:17:31;6;6;
61815;PMS5003;57055;-35.296;149.168;2023-05-02T02:20:07;6;6;
61815;PMS5003;57055;-35.296;149.168;2023-05-02T02:22:39;9;8;
61815;PMS5003;57055;-35.296;149.168;2023-05-02T02:25:10;6;6;
61815;PMS5003;57055;-35.296;149.168;2023-05-02T02:27:42;10;7;
61815;PMS5003;57055;-35.296;149.168;2023-05-02T02:30:11;9;9;
61815;PMS5003;57055;-35.296;149.168;2023-05-02T02:32:40;9;8;
61815;PMS5003;57055;-35.296;149.168;2023-05-02T02:35:09;7;7;
61815;PMS5003;57055;-35.296;149.168;2023-05-02T02:37:40;7;7;
61815;PMS5003;57055;-35.296;149.168;2023-05-02T02:40:15;6;6;
61815;PMS5003;57055;-35.296;149.168;2023-05-02T02:42:54;5;5;
61815;PMS5003;57055;-35.296;149.168;2023-05-02T02:45:32;5;5;
61815;PMS5003;57055;-35.296;149.168;2023-05-02T02:48:07;7;5;
61815;PMS5003;57055;-35.296;149.168;2023-05-02T02:50:49;3;3;
61815;PMS5003;57055;-35.296;149.168;2023-05-02T02:53:31;5;5;
61815;PMS5003;57055;-35.296;149.168;2023-05-02T02:56:14;4;4;
61815;PMS5003;57055;-35.296;149.168;2023-05-02T02:58:48;3;3;
61815;PMS5003;57055;-35.296;149.168;2023-05-02T03:01:23;4;3;
61815;PMS5003;57055;-35.296;149.168;2023-05-02T03:03:54;2;2;
61815;PMS5003;57055;-35.296;149.168;2023-05-02T03:06:24;3;3;
61815;PMS5003;57055;-35.296;149.168;2023-05-02T03:08:53;3;3;
61815;PMS5003;57055;-35.296;149.168;2023-05-02T03:11:22;2;2;
61815;PMS5003;57055;-35.296;149.168;2023-05-02T03:13:51;2;2;
61815;PMS5003;57055;-35.296;149.168;2023-05-02T03:16:28;1;1;
61815;PMS5003;57055;-35.296;149.168;2023-05-02T03:19:01;2;2;
61815;PMS5003;57055;-35.296;149.168;2023-05-02T03:21:30;1;1;
61815;PMS5003;57055;-35.296;149.168;2023-05-02T03:23:59;0;0;
61815;PMS5003;57055;-35.296;149.168;2023-05-02T03:26:29;0;0;
61815;PMS5003;57055;-35.296;149.168;2023-05-02T03:28:58;0;0;
61815;PMS5003;57055;-35.296;149.168;2023-05-02T03:31:27;2;2;
61815;PMS5003;57055;-35.296;149.168;2023-05-02T03:33:55;0;0;
61815;PMS5003;57055;-35.296;149.168;2023-05-02T03:36:24;1;1;
61815;PMS5003;57055;-35.296;149.168;2023-05-02T03:38:53;4;2;
61815;PMS5003;57055;-35.296;149.168;2023-05-02T03:41:21;1;1;
61815;PMS5003;57055;-35.296;149.168;2023-05-02T03:43:51;1;1;
61815;PMS5003;57055;-35.296;149.168;2023-05-02T03:46:19;1;1;
61815;PMS5003;57055;-35.296;149.168;2023-05-02T03:48:48;1;0;
61815;PMS5003;57055;-35.296;149.168;2023-05-02T03:51:17;2;2;
61815;PMS5003;57055;-35.296;149.168;2023-05-02T03:53:45;0;0;
61815;PMS5003;57055;-35.296;149.168;2023-05-02T03:56:16;3;3;
61815;PMS5003;57055;-35.296;149.168;2023-05-02T03:58:46;2;2;
61815;PMS5003;57055;-35.296;149.168;2023-05-02T04:01:15;1;1;
61815;PMS5003;57055;-35.296;149.168;2023-05-02T04:03:43;2;2;
61815;PMS5003;57055;-35.296;149.168;2023-05-02T04:06:12;2;2;
61815;PMS5003;57055;-35.296;149.168;2023-05-02T04:08:41;3;1;
61815;PMS5003;57055;-35.296;149.168;2023-05-02T04:11:09;1;1;
61815;PMS5003;57055;-35.296;149.168;2023-05-02T04:13:38;1;1;
61815;PMS5003;57055;-35.296;149.168;2023-05-02T04:16:08;1;1;
61815;PMS5003;57055;-35.296;149.168;2023-05-02T04:18:36;1;1;
61815;PMS5003;57055;-35.296;149.168;2023-05-02T04:21:06;1;1;
61815;PMS5003;57055;-35.296;149.168;2023-05-02T04:23:35;2;2;
61815;PMS5003;57055;-35.296;149.168;2023-05-02T04:26:04;0;0;
61815;PMS5003;57055;-35.296;149.168;2023-05-02T04:28:33;1;1;
61815;PMS5003;57055;-35.296;149.168;2023-05-02T04:31:02;2;2;
61815;PMS5003;57055;-35.296;149.168;2023-05-02T04:33:31;1;1;
61815;PMS5003;57055;-35.296;149.168;2023-05-02T04:36:00;2;2;
61815;PMS5003;57055;-35.296;149.168;2023-05-02T04:38:29;1;1;
61815;PMS5003;57055;-35.296;149.168;2023-05-02T04:40:58;1;1;
61815;PMS5003;57055;-35.296;149.168;2023-05-02T04:43:26;1;1;
61815;PMS5003;57055;-35.296;149.168;2023-05-02T04:45:56;3;3;
61815;PMS5003;57055;-35.296;149.168;2023-05-02T04:48:25;2;1;
61815;PMS5003;57055;-35.296;149.168;2023-05-02T04:50:53;2;2;
61815;PMS5003;57055;-35.296;149.168;2023-05-02T04:53:22;1;1;
61815;PMS5003;57055;-35.296;149.168;2023-05-02T04:55:51;2;2;
61815;PMS5003;57055;-35.296;149.168;2023-05-02T04:58:19;2;2;
61815;PMS5003;57055;-35.296;149.168;2023-05-02T05:00:48;2;2;
61815;PMS5003;57055;-35.296;149.168;2023-05-02T05:03:17;2;2;
61815;PMS5003;57055;-35.296;149.168;2023-05-02T05:05:45;1;1;
61815;PMS5003;57055;-35.296;149.168;2023-05-02T05:08:14;1;1;
61815;PMS5003;57055;-35.296;149.168;2023-05-02T05:10:42;1;1;
61815;PMS5003;57055;-35.296;149.168;2023-05-02T05:13:11;1;1;
61815;PMS5003;57055;-35.296;149.168;2023-05-02T05:15:40;2;2;
61815;PMS5003;57055;-35.296;149.168;2023-05-02T05:18:09;2;2;
61815;PMS5003;57055;-35.296;149.168;2023-05-02T05:20:38;1;1;
61815;PMS5003;57055;-35.296;149.168;2023-05-02T05:23:07;3;3;
61815;PMS5003;57055;-35.296;149.168;2023-05-02T05:25:35;2;2;
61815;PMS5003;57055;-35.296;149.168;2023-05-02T05:28:04;3;3;
61815;PMS5003;57055;-35.296;149.168;2023-05-02T05:30:32;2;2;
61815;PMS5003;57055;-35.296;149.168;2023-05-02T05:33:01;2;2;
61815;PMS5003;57055;-35.296;149.168;2023-05-02T05:35:30;2;2;
61815;PMS5003;57055;-35.296;149.168;2023-05-02T05:37:58;2;2;
61815;PMS5003;57055;-35.296;149.168;2023-05-02T05:40:27;3;3;
61815;PMS5003;57055;-35.296;149.168;2023-05-02T05:42:56;2;2;
61815;PMS5003;57055;-35.296;149.168;2023-05-02T05:45:24;2;2;
61815;PMS5003;57055;-35.296;149.168;2023-05-02T05:47:53;3;3;
61815;PMS5003;57055;-35.296;149.168;2023-05-02T05:50:23;2;2;
61815;PMS5003;57055;-35.296;149.168;2023-05-02T05:52:51;1;1;
61815;PMS5003;57055;-35.296;149.168;2023-05-02T05:55:20;2;2;
61815;PMS5003;57055;-35.296;149.168;2023-05-02T05:57:49;2;2;
61815;PMS5003;57055;-35.296;149.168;2023-05-02T06:00:17;1;1;
61815;PMS5003;57055;-35.296;149.168;2023-05-02T06:02:47;2;2;
61815;PMS5003;57055;-35.296;149.168;2023-05-02T06:05:15;1;1;
61815;PMS5003;57055;-35.296;149.168;2023-05-02T06:07:44;0;0;
61815;PMS5003;57055;-35.296;149.168;2023-05-02T06:10:13;2;2;
61815;PMS5003;57055;-35.296;149.168;2023-05-02T06:12:42;2;2;
61815;PMS5003;57055;-35.296;149.168;2023-05-02T06:15:11;1;1;
61815;PMS5003;57055;-35.296;149.168;2023-05-02T06:17:40;2;2;
61815;PMS5003;57055;-35.296;149.168;2023-05-02T06:20:09;1;1;
61815;PMS5003;57055;-35.296;149.168;2023-05-02T06:22:39;2;2;
61815;PMS5003;57055;-35.296;149.168;2023-05-02T06:25:07;1;1;
61815;PMS5003;57055;-35.296;149.168;2023-05-02T06:27:37;0;0;
61815;PMS5003;57055;-35.296;149.168;2023-05-02T06:30:06;1;1;
61815;PMS5003;57055;-35.296;149.168;2023-05-02T06:32:36;0;0;
61815;PMS5003;57055;-35.296;149.168;2023-05-02T06:35:05;2;2;
61815;PMS5003;57055;-35.296;149.168;2023-05-02T06:37:34;1;1;
61815;PMS5003;57055;-35.296;149.168;2023-05-02T06:40:03;1;1;
61815;PMS5003;57055;-35.296;149.168;2023-05-02T06:42:32;1;1;
61815;PMS5003;57055;-35.296;149.168;2023-05-02T06:45:01;1;1;
61815;PMS5003;57055;-35.296;149.168;2023-05-02T06:47:31;1;1;
61815;PMS5003;57055;-35.296;149.168;2023-05-02T06:50:01;1;1;
61815;PMS5003;57055;-35.296;149.168;2023-05-02T06:52:30;0;0;
61815;PMS5003;57055;-35.296;149.168;2023-05-02T06:54:58;0;0;
61815;PMS5003;57055;-35.296;149.168;2023-05-02T06:57:27;0;0;
61815;PMS5003;57055;-35.296;149.168;2023-05-02T06:59:56;1;1;
61815;PMS5003;57055;-35.296;149.168;2023-05-02T07:02:24;0;0;
61815;PMS5003;57055;-35.296;149.168;2023-05-02T07:04:53;0;0;
61815;PMS5003;57055;-35.296;149.168;2023-05-02T07:07:22;0;0;
61815;PMS5003;57055;-35.296;149.168;2023-05-02T07:09:50;1;1;
61815;PMS5003;57055;-35.296;149.168;2023-05-02T07:12:19;2;2;
61815;PMS5003;57055;-35.296;149.168;2023-05-02T07:14:48;0;0;
61815;PMS5003;57055;-35.296;149.168;2023-05-02T07:17:16;1;1;
61815;PMS5003;57055;-35.296;149.168;2023-05-02T07:19:45;0;0;
61815;PMS5003;57055;-35.296;149.168;2023-05-02T07:22:14;1;1;
61815;PMS5003;57055;-35.296;149.168;2023-05-02T07:24:43;0;0;
61815;PMS5003;57055;-35.296;149.168;2023-05-02T07:27:12;1;1;
61815;PMS5003;57055;-35.296;149.168;2023-05-02T07:29:40;2;1;
61815;PMS5003;57055;-35.296;149.168;2023-05-02T07:32:09;0;0;
61815;PMS5003;57055;-35.296;149.168;2023-05-02T07:34:38;0;0;
61815;PMS5003;57055;-35.296;149.168;2023-05-02T07:37:07;0;0;
61815;PMS5003;57055;-35.296;149.168;2023-05-02T07:39:35;1;1;
61815;PMS5003;57055;-35.296;149.168;2023-05-02T07:42:04;1;1;
61815;PMS5003;57055;-35.296;149.168;2023-05-02T07:44:33;0;0;
61815;PMS5003;57055;-35.296;149.168;2023-05-02T07:47:01;1;1;
61815;PMS5003;57055;-35.296;149.168;2023-05-02T07:49:30;0;0;
61815;PMS5003;57055;-35.296;149.168;2023-05-02T07:51:59;0;0;
61815;PMS5003;57055;-35.296;149.168;2023-05-02T07:54:28;0;0;
61815;PMS5003;57055;-35.296;149.168;2023-05-02T07:56:57;1;1;
61815;PMS5003;57055;-35.296;149.168;2023-05-02T07:59:26;2;1;
61815;PMS5003;57055;-35.296;149.168;2023-05-02T08:01:56;2;1;
61815;PMS5003;57055;-35.296;149.168;2023-05-02T08:04:25;0;0;
61815;PMS5003;57055;-35.296;149.168;2023-05-02T08:06:54;1;1;
61815;PMS5003;57055;-35.296;149.168;2023-05-02T08:09:23;1;1;
61815;PMS5003;57055;-35.296;149.168;2023-05-02T08:11:52;1;1;
61815;PMS5003;57055;-35.296;149.168;2023-05-02T08:14:21;0;0;
61815;PMS5003;57055;-35.296;149.168;2023-05-02T08:16:50;0;0;
61815;PMS5003;57055;-35.296;149.168;2023-05-02T08:19:18;0;0;
61815;PMS5003;57055;-35.296;149.168;2023-05-02T08:21:47;0;0;
61815;PMS5003;57055;-35.296;149.168;2023-05-02T08:24:17;0;0;
61815;PMS5003;57055;-35.296;149.168;2023-05-02T08:26:46;1;1;
61815;PMS5003;57055;-35.296;149.168;2023-05-02T08:29:14;2;0;
61815;PMS5003;57055;-35.296;149.168;2023-05-02T08:31:43;1;1;
61815;PMS5003;57055;-35.296;149.168;2023-05-02T08:34:11;1;1;
61815;PMS5003;57055;-35.296;149.168;2023-05-02T08:36:40;1;1;
61815;PMS5003;57055;-35.296;149.168;2023-05-02T08:39:09;2;2;
61815;PMS5003;57055;-35.296;149.168;2023-05-02T08:41:38;1;1;
61815;PMS5003;57055;-35.296;149.168;2023-05-02T08:44:06;2;2;
61815;PMS5003;57055;-35.296;149.168;2023-05-02T08:46:35;2;2;
61815;PMS5003;57055;-35.296;149.168;2023-05-02T08:49:06;1;1;
61815;PMS5003;57055;-35.296;149.168;2023-05-02T08:51:37;2;2;
61815;PMS5003;57055;-35.296;149.168;2023-05-02T08:54:09;4;2;
61815;PMS5003;57055;-35.296;149.168;2023-05-02T08:56:43;1;1;
61815;PMS5003;57055;-35.296;149.168;2023-05-02T08:59:12;1;1;
61815;PMS5003;57055;-35.296;149.168;2023-05-02T09:01:41;2;2;
61815;PMS5003;57055;-35.296;149.168;2023-05-02T09:04:15;2;2;
61815;PMS5003;57055;-35.296;149.168;2023-05-02T09:06:47;6;4;
61815;PMS5003;57055;-35.296;149.168;2023-05-02T09:09:16;1;1;
61815;PMS5003;57055;-35.296;149.168;2023-05-02T09:11:46;3;3;
61815;PMS5003;57055;-35.296;149.168;2023-05-02T09:14:15;3;3;
61815;PMS5003;57055;-35.296;149.168;2023-05-02T09:16:44;2;2;
61815;PMS5003;57055;-35.296;149.168;2023-05-02T09:19:22;4;2;
61815;PMS5003;57055;-35.296;149.168;2023-05-02T09:21:52;3;1;
61815;PMS5003;57055;-35.296;149.168;2023-05-02T09:24:28;4;2;
61815;PMS5003;57055;-35.296;149.168;2023-05-02T09:26:58;2;2;
61815;PMS5003;57055;-35.296;149.168;2023-05-02T09:29:29;2;2;
61815;PMS5003;57055;-35.296;149.168;2023-05-02T09:31:59;2;2;
61815;PMS5003;57055;-35.296;149.168;2023-05-02T09:34:28;1;1;
61815;PMS5003;57055;-35.296;149.168;2023-05-02T09:36:57;3;1;
61815;PMS5003;57055;-35.296;149.168;2023-05-02T09:39:26;1;1;
61815;PMS5003;57055;-35.296;149.168;2023-05-02T09:41:56;3;3;
61815;PMS5003;57055;-35.296;149.168;2023-05-02T09:44:25;3;3;
61815;PMS5003;57055;-35.296;149.168;2023-05-02T09:47:04;2;2;
61815;PMS5003;57055;-35.296;149.168;2023-05-02T09:49:38;1;1;
61815;PMS5003;57055;-35.296;149.168;2023-05-02T09:52:09;3;2;
61815;PMS5003;57055;-35.296;149.168;2023-05-02T09:54:40;1;1;
61815;PMS5003;57055;-35.296;149.168;2023-05-02T09:57:09;2;2;
61815;PMS5003;57055;-35.296;149.168;2023-05-02T09:59:38;1;1;
61815;PMS5003;57055;-35.296;149.168;2023-05-02T10:02:07;1;0;
61815;PMS5003;57055;-35.296;149.168;2023-05-02T10:04:36;2;1;
61815;PMS5003;57055;-35.296;149.168;2023-05-02T10:07:06;0;0;
61815;PMS5003;57055;-35.296;149.168;2023-05-02T10:09:35;3;1;
61815;PMS5003;57055;-35.296;149.168;2023-05-02T10:12:08;1;1;
61815;PMS5003;57055;-35.296;149.168;2023-05-02T10:14:43;3;2;
61815;PMS5003;57055;-35.296;149.168;2023-05-02T10:17:18;3;2;
61815;PMS5003;57055;-35.296;149.168;2023-05-02T10:19:55;1;1;
61815;PMS5003;57055;-35.296;149.168;2023-05-02T10:22:27;2;2;
61815;PMS5003;57055;-35.296;149.168;2023-05-02T10:24:58;2;2;
61815;PMS5003;57055;-35.296;149.168;2023-05-02T10:27:28;2;1;
61815;PMS5003;57055;-35.296;149.168;2023-05-02T10:29:58;1;1;
61815;PMS5003;57055;-35.296;149.168;2023-05-02T10:32:27;2;2;
61815;PMS5003;57055;-35.296;149.168;2023-05-02T10:35:02;3;3;
61815;PMS5003;57055;-35.296;149.168;2023-05-02T10:37:33;2;2;
61815;PMS5003;57055;-35.296;149.168;2023-05-02T10:40:05;1;1;
61815;PMS5003;57055;-35.296;149.168;2023-05-02T10:42:39;2;2;
61815;PMS5003;57055;-35.296;149.168;2023-05-02T10:45:11;0;0;
61815;PMS5003;57055;-35.296;149.168;2023-05-02T10:48:11;2;0;
61815;PMS5003;57055;-35.296;149.168;2023-05-02T10:50:43;1;1;
61815;PMS5003;57055;-35.296;149.168;2023-05-02T10:53:21;1;1;
61815;PMS5003;57055;-35.296;149.168;2023-05-02T10:56:12;1;1;
61815;PMS5003;57055;-35.296;149.168;2023-05-02T10:58:43;2;1;
61815;PMS5003;57055;-35.296;149.168;2023-05-02T11:01:45;3;2;
61815;PMS5003;57055;-35.296;149.168;2023-05-02T11:04:14;2;2;
61815;PMS5003;57055;-35.296;149.168;2023-05-02T11:07:48;2;2;
61815;PMS5003;57055;-35.296;149.168;2023-05-02T11:10:56;1;1;
61815;PMS5003;57055;-35.296;149.168;2023-05-02T11:14:04;1;1;
61815;PMS5003;57055;-35.296;149.168;2023-05-02T11:17:08;2;1;
61815;PMS5003;57055;-35.296;149.168;2023-05-02T11:20:23;0;0;
61815;PMS5003;57055;-35.296;149.168;2023-05-02T11:22:57;1;1;
61815;PMS5003;57055;-35.296;149.168;2023-05-02T11:25:47;1;1;
61815;PMS5003;57055;-35.296;149.168;2023-05-02T11:28:41;1;1;
61815;PMS5003;57055;-35.296;149.168;2023-05-02T11:31:51;1;1;
61815;PMS5003;57055;-35.296;149.168;2023-05-02T11:34:20;1;1;
61815;PMS5003;57055;-35.296;149.168;2023-05-02T11:36:49;2;2;
61815;PMS5003;57055;-35.296;149.168;2023-05-02T11:39:18;1;1;
61815;PMS5003;57055;-35.296;149.168;2023-05-02T11:41:47;1;1;
61815;PMS5003;57055;-35.296;149.168;2023-05-02T11:44:16;1;1;
61815;PMS5003;57055;-35.296;149.168;2023-05-02T11:46:45;1;1;
61815;PMS5003;57055;-35.296;149.168;2023-05-02T11:49:14;1;1;
61815;PMS5003;57055;-35.296;149.168;2023-05-02T11:51:43;1;1;
61815;PMS5003;57055;-35.296;149.168;2023-05-02T11:54:17;0;0;
61815;PMS5003;57055;-35.296;149.168;2023-05-02T11:56:47;3;3;
61815;PMS5003;57055;-35.296;149.168;2023-05-02T11:59:16;1;1;
61815;PMS5003;57055;-35.296;149.168;2023-05-02T12:01:47;1;1;
61815;PMS5003;57055;-35.296;149.168;2023-05-02T12:04:16;1;1;
61815;PMS5003;57055;-35.296;149.168;2023-05-02T12:06:53;1;1;
61815;PMS5003;57055;-35.296;149.168;2023-05-02T12:09:23;0;0;
61815;PMS5003;57055;-35.296;149.168;2023-05-02T12:11:52;1;1;
61815;PMS5003;57055;-35.296;149.168;2023-05-02T12:14:29;1;1;
61815;PMS5003;57055;-35.296;149.168;2023-05-02T12:16:58;0;0;
61815;PMS5003;57055;-35.296;149.168;2023-05-02T12:19:27;1;1;
61815;PMS5003;57055;-35.296;149.168;2023-05-02T12:21:57;0;0;
61815;PMS5003;57055;-35.296;149.168;2023-05-02T12:24:26;1;1;
61815;PMS5003;57055;-35.296;149.168;2023-05-02T12:27:11;0;0;
61815;PMS5003;57055;-35.296;149.168;2023-05-02T12:29:41;0;0;
61815;PMS5003;57055;-35.296;149.168;2023-05-02T12:32:11;0;0;
61815;PMS5003;57055;-35.296;149.168;2023-05-02T12:34:41;1;1;
61815;PMS5003;57055;-35.296;149.168;2023-05-02T12:37:12;0;0;
61815;PMS5003;57055;-35.296;149.168;2023-05-02T12:39:48;0;0;
61815;PMS5003;57055;-35.296;149.168;2023-05-02T12:42:18;0;0;
61815;PMS5003;57055;-35.296;149.168;2023-05-02T12:44:48;0;0;
61815;PMS5003;57055;-35.296;149.168;2023-05-02T12:47:18;1;1;
61815;PMS5003;57055;-35.296;149.168;2023-05-02T12:49:48;1;1;
61815;PMS5003;57055;-35.296;149.168;2023-05-02T12:52:17;1;1;
61815;PMS5003;57055;-35.296;149.168;2023-05-02T12:54:47;1;1;
61815;PMS5003;57055;-35.296;149.168;2023-05-02T12:57:24;1;1;
61815;PMS5003;57055;-35.296;149.168;2023-05-02T12:59:53;1;1;
61815;PMS5003;57055;-35.296;149.168;2023-05-02T13:02:21;2;2;
61815;PMS5003;57055;-35.296;149.168;2023-05-02T13:04:50;0;0;
61815;PMS5003;57055;-35.296;149.168;2023-05-02T13:07:19;2;1;
61815;PMS5003;57055;-35.296;149.168;2023-05-02T13:09:47;1;1;
61815;PMS5003;57055;-35.296;149.168;2023-05-02T13:12:16;1;1;
61815;PMS5003;57055;-35.296;149.168;2023-05-02T13:14:45;2;1;
61815;PMS5003;57055;-35.296;149.168;2023-05-02T13:17:14;0;0;
61815;PMS5003;57055;-35.296;149.168;2023-05-02T13:19:43;0;0;
61815;PMS5003;57055;-35.296;149.168;2023-05-02T13:22:11;0;0;
61815;PMS5003;57055;-35.296;149.168;2023-05-02T13:24:40;0;0;
61815;PMS5003;57055;-35.296;149.168;2023-05-02T13:27:09;0;0;
61815;PMS5003;57055;-35.296;149.168;2023-05-02T13:29:38;1;1;
61815;PMS5003;57055;-35.296;149.168;2023-05-02T13:32:07;0;0;
61815;PMS5003;57055;-35.296;149.168;2023-05-02T13:34:36;0;0;
61815;PMS5003;57055;-35.296;149.168;2023-05-02T13:37:04;1;1;
61815;PMS5003;57055;-35.296;149.168;2023-05-02T13:39:33;0;0;
61815;PMS5003;57055;-35.296;149.168;2023-05-02T13:42:02;0;0;
61815;PMS5003;57055;-35.296;149.168;2023-05-02T13:44:31;1;1;
61815;PMS5003;57055;-35.296;149.168;2023-05-02T13:46:59;0;0;
61815;PMS5003;57055;-35.296;149.168;2023-05-02T13:49:28;1;1;
61815;PMS5003;57055;-35.296;149.168;2023-05-02T13:51:57;2;1;
61815;PMS5003;57055;-35.296;149.168;2023-05-02T13:54:26;1;1;
61815;PMS5003;57055;-35.296;149.168;2023-05-02T13:56:54;0;0;
61815;PMS5003;57055;-35.296;149.168;2023-05-02T13:59:24;1;1;
61815;PMS5003;57055;-35.296;149.168;2023-05-02T14:01:53;0;0;
61815;PMS5003;57055;-35.296;149.168;2023-05-02T14:04:22;0;0;
61815;PMS5003;57055;-35.296;149.168;2023-05-02T14:06:51;1;1;
61815;PMS5003;57055;-35.296;149.168;2023-05-02T14:09:20;0;0;
61815;PMS5003;57055;-35.296;149.168;2023-05-02T14:11:48;0;0;
61815;PMS5003;57055;-35.296;149.168;2023-05-02T14:14:17;1;1;
61815;PMS5003;57055;-35.296;149.168;2023-05-02T14:16:46;1;1;
61815;PMS5003;57055;-35.296;149.168;2023-05-02T14:19:15;2;0;
61815;PMS5003;57055;-35.296;149.168;2023-05-02T14:21:43;0;0;
61815;PMS5003;57055;-35.296;149.168;2023-05-02T14:24:12;1;1;
61815;PMS5003;57055;-35.296;149.168;2023-05-02T14:26:41;0;0;
61815;PMS5003;57055;-35.296;149.168;2023-05-02T14:29:10;0;0;
61815;PMS5003;57055;-35.296;149.168;2023-05-02T14:31:38;1;1;
61815;PMS5003;57055;-35.296;149.168;2023-05-02T14:34:07;1;1;
61815;PMS5003;57055;-35.296;149.168;2023-05-02T14:36:36;0;0;
61815;PMS5003;57055;-35.296;149.168;2023-05-02T14:39:04;1;1;
61815;PMS5003;57055;-35.296;149.168;2023-05-02T14:41:33;0;0;
61815;PMS5003;57055;-35.296;149.168;2023-05-02T14:44:02;1;1;
61815;PMS5003;57055;-35.296;149.168;2023-05-02T14:46:31;2;0;
61815;PMS5003;57055;-35.296;149.168;2023-05-02T14:48:59;1;1;
61815;PMS5003;57055;-35.296;149.168;2023-05-02T14:51:28;0;0;
61815;PMS5003;57055;-35.296;149.168;2023-05-02T14:53:57;1;1;
61815;PMS5003;57055;-35.296;149.168;2023-05-02T14:56:26;1;1;
61815;PMS5003;57055;-35.296;149.168;2023-05-02T14:58:54;0;0;
61815;PMS5003;57055;-35.296;149.168;2023-05-02T15:01:24;2;1;
61815;PMS5003;57055;-35.296;149.168;2023-05-02T15:03:53;2;2;
61815;PMS5003;57055;-35.296;149.168;2023-05-02T15:06:22;0;0;
61815;PMS5003;57055;-35.296;149.168;2023-05-02T15:08:54;2;2;
61815;PMS5003;57055;-35.296;149.168;2023-05-02T15:11:23;0;0;
61815;PMS5003;57055;-35.296;149.168;2023-05-02T15:13:52;0;0;
61815;PMS5003;57055;-35.296;149.168;2023-05-02T15:16:21;2;0;
61815;PMS5003;57055;-35.296;149.168;2023-05-02T15:18:49;1;1;
61815;PMS5003;57055;-35.296;149.168;2023-05-02T15:21:18;1;1;
61815;PMS5003;57055;-35.296;149.168;2023-05-02T15:23:47;0;0;
61815;PMS5003;57055;-35.296;149.168;2023-05-02T15:26:15;1;1;
61815;PMS5003;57055;-35.296;149.168;2023-05-02T15:28:44;1;1;
61815;PMS5003;57055;-35.296;149.168;2023-05-02T15:31:15;1;1;
61815;PMS5003;57055;-35.296;149.168;2023-05-02T15:33:43;1;1;
61815;PMS5003;57055;-35.296;149.168;2023-05-02T15:36:12;0;0;
61815;PMS5003;57055;-35.296;149.168;2023-05-02T15:38:41;4;1;
61815;PMS5003;57055;-35.296;149.168;2023-05-02T15:41:09;1;1;
61815;PMS5003;57055;-35.296;149.168;2023-05-02T15:43:38;2;2;
61815;PMS5003;57055;-35.296;149.168;2023-05-02T15:46:07;2;2;
61815;PMS5003;57055;-35.296;149.168;2023-05-02T15:48:36;1;1;
61815;PMS5003;57055;-35.296;149.168;2023-05-02T15:51:05;1;1;
61815;PMS5003;57055;-35.296;149.168;2023-05-02T15:53:34;1;1;
61815;PMS5003;57055;-35.296;149.168;2023-05-02T15:56:03;0;0;
61815;PMS5003;57055;-35.296;149.168;2023-05-02T15:58:35;1;1;
61815;PMS5003;57055;-35.296;149.168;2023-05-02T16:01:05;1;1;
61815;PMS5003;57055;-35.296;149.168;2023-05-02T16:03:35;0;0;
61815;PMS5003;57055;-35.296;149.168;2023-05-02T16:06:04;0;0;
61815;PMS5003;57055;-35.296;149.168;2023-05-02T16:08:33;1;1;
61815;PMS5003;57055;-35.296;149.168;2023-05-02T16:11:02;1;1;
61815;PMS5003;57055;-35.296;149.168;2023-05-02T16:13:31;1;1;
61815;PMS5003;57055;-35.296;149.168;2023-05-02T16:15:59;2;2;
61815;PMS5003;57055;-35.296;149.168;2023-05-02T16:18:28;2;2;
61815;PMS5003;57055;-35.296;149.168;2023-05-02T16:20:57;1;1;
61815;PMS5003;57055;-35.296;149.168;2023-05-02T16:23:26;0;0;